sensor_id;sensor_type;location;lat;lon;timestamp;P1;durP1;ratioP1;P2;durP2;ratioP2
76701;SDS011;70097;44.536;0.146;2023-06-04T00:00:35;6.70;;;3.50;;
76701;SDS011;70097;44.536;0.146;2023-06-04T00:06:08;5.67;;;3.53;;
76701;SDS011;70097;44.536;0.146;2023-06-04T00:11:41;7.60;;;3.80;;
76701;SDS011;70097;44.536;0.146;2023-06-04T00:17:14;8.23;;;4.40;;
76701;SDS011;70097;44.536;0.146;2023-06-04T00:22:47;9.80;;;4.43;;
76701;SDS011;70097;44.536;0.146;2023-06-04T00:28:19;9.03;;;4.30;;
76701;SDS011;70097;44.536;0.146;2023-06-04T00:33:53;9.53;;;3.90;;
76701;SDS011;70097;44.536;0.146;2023-06-04T00:39:26;8.67;;;3.87;;
76701;SDS011;70097;44.536;0.146;2023-06-04T00:45:00;7.47;;;4.50;;
76701;SDS011;70097;44.536;0.146;2023-06-04T00:50:33;9.20;;;4.13;;
76701;SDS011;70097;44.536;0.146;2023-06-04T00:56:05;10.13;;;4.27;;
76701;SDS011;70097;44.536;0.146;2023-06-04T01:01:42;7.23;;;3.70;;
76701;SDS011;70097;44.536;0.146;2023-06-04T01:07:13;6.70;;;4.43;;
76701;SDS011;70097;44.536;0.146;2023-06-04T01:12:44;8.23;;;4.23;;
76701;SDS011;70097;44.536;0.146;2023-06-04T01:18:20;6.40;;;4.23;;
76701;SDS011;70097;44.536;0.146;2023-06-04T01:23:50;7.53;;;4.10;;
76701;SDS011;70097;44.536;0.146;2023-06-04T01:29:23;8.17;;;4.10;;
76701;SDS011;70097;44.536;0.146;2023-06-04T01:34:55;6.90;;;3.87;;
76701;SDS011;70097;44.536;0.146;2023-06-04T01:40:26;5.73;;;3.67;;
76701;SDS011;70097;44.536;0.146;2023-06-04T01:45:59;5.80;;;3.17;;
76701;SDS011;70097;44.536;0.146;2023-06-04T01:51:32;10.70;;;4.63;;
76701;SDS011;70097;44.536;0.146;2023-06-04T01:57:05;8.27;;;3.67;;
76701;SDS011;70097;44.536;0.146;2023-06-04T02:02:39;7.40;;;3.93;;
76701;SDS011;70097;44.536;0.146;2023-06-04T02:08:14;6.67;;;3.70;;
76701;SDS011;70097;44.536;0.146;2023-06-04T02:13:45;5.63;;;3.20;;
76701;SDS011;70097;44.536;0.146;2023-06-04T02:19:18;10.63;;;5.93;;
76701;SDS011;70097;44.536;0.146;2023-06-04T02:24:53;5.50;;;3.67;;
76701;SDS011;70097;44.536;0.146;2023-06-04T02:30:24;8.70;;;3.73;;
76701;SDS011;70097;44.536;0.146;2023-06-04T02:35:57;8.90;;;3.60;;
76701;SDS011;70097;44.536;0.146;2023-06-04T02:41:30;5.13;;;2.90;;
76701;SDS011;70097;44.536;0.146;2023-06-04T02:47:03;6.33;;;3.10;;
76701;SDS011;70097;44.536;0.146;2023-06-04T02:52:36;7.83;;;3.63;;
76701;SDS011;70097;44.536;0.146;2023-06-04T02:58:08;6.07;;;3.50;;
76701;SDS011;70097;44.536;0.146;2023-06-04T03:03:40;9.87;;;4.07;;
76701;SDS011;70097;44.536;0.146;2023-06-04T03:09:14;8.97;;;4.03;;
76701;SDS011;70097;44.536;0.146;2023-06-04T03:14:47;7.37;;;3.57;;
76701;SDS011;70097;44.536;0.146;2023-06-04T03:20:20;6.90;;;4.03;;
76701;SDS011;70097;44.536;0.146;2023-06-04T03:25:53;9.20;;;4.07;;
76701;SDS011;70097;44.536;0.146;2023-06-04T03:31:26;7.37;;;4.60;;
76701;SDS011;70097;44.536;0.146;2023-06-04T03:36:58;11.93;;;6.00;;
76701;SDS011;70097;44.536;0.146;2023-06-04T03:42:30;8.30;;;5.70;;
76701;SDS011;70097;44.536;0.146;2023-06-04T03:48:02;12.50;;;5.03;;
76701;SDS011;70097;44.536;0.146;2023-06-04T03:53:35;11.10;;;6.40;;
76701;SDS011;70097;44.536;0.146;2023-06-04T03:59:07;7.53;;;4.83;;
76701;SDS011;70097;44.536;0.146;2023-06-04T04:04:40;10.17;;;5.70;;
76701;SDS011;70097;44.536;0.146;2023-06-04T04:10:13;10.23;;;4.70;;
76701;SDS011;70097;44.536;0.146;2023-06-04T04:15:46;9.87;;;5.63;;
76701;SDS011;70097;44.536;0.146;2023-06-04T04:21:19;8.93;;;5.90;;
76701;SDS011;70097;44.536;0.146;2023-06-04T04:26:52;7.83;;;5.50;;
76701;SDS011;70097;44.536;0.146;2023-06-04T04:32:25;8.83;;;5.50;;
76701;SDS011;70097;44.536;0.146;2023-06-04T04:37:58;10.07;;;5.13;;
76701;SDS011;70097;44.536;0.146;2023-06-04T04:43:31;8.43;;;6.03;;
76701;SDS011;70097;44.536;0.146;2023-06-04T04:49:02;14.13;;;5.83;;
76701;SDS011;70097;44.536;0.146;2023-06-04T04:54:35;10.03;;;5.17;;
76701;SDS011;70097;44.536;0.146;2023-06-04T05:00:10;9.00;;;5.77;;
76701;SDS011;70097;44.536;0.146;2023-06-04T05:05:43;10.00;;;5.27;;
76701;SDS011;70097;44.536;0.146;2023-06-04T05:11:15;12.70;;;5.80;;
76701;SDS011;70097;44.536;0.146;2023-06-04T05:16:48;10.83;;;5.13;;
76701;SDS011;70097;44.536;0.146;2023-06-04T05:22:21;10.50;;;5.40;;
76701;SDS011;70097;44.536;0.146;2023-06-04T05:27:53;11.03;;;4.43;;
76701;SDS011;70097;44.536;0.146;2023-06-04T05:33:26;6.03;;;4.27;;
76701;SDS011;70097;44.536;0.146;2023-06-04T05:38:59;10.43;;;5.63;;
76701;SDS011;70097;44.536;0.146;2023-06-04T05:44:32;9.83;;;6.13;;
76701;SDS011;70097;44.536;0.146;2023-06-04T05:50:06;12.20;;;6.97;;
76701;SDS011;70097;44.536;0.146;2023-06-04T05:55:39;18.13;;;9.93;;
76701;SDS011;70097;44.536;0.146;2023-06-04T06:01:12;19.03;;;10.30;;
76701;SDS011;70097;44.536;0.146;2023-06-04T06:06:44;20.77;;;11.50;;
76701;SDS011;70097;44.536;0.146;2023-06-04T06:12:17;23.47;;;12.20;;
76701;SDS011;70097;44.536;0.146;2023-06-04T06:17:50;22.33;;;11.93;;
76701;SDS011;70097;44.536;0.146;2023-06-04T06:23:22;16.40;;;10.70;;
76701;SDS011;70097;44.536;0.146;2023-06-04T06:28:57;21.03;;;12.67;;
76701;SDS011;70097;44.536;0.146;2023-06-04T06:34:27;19.17;;;10.87;;
76701;SDS011;70097;44.536;0.146;2023-06-04T06:39:59;19.90;;;11.90;;
76701;SDS011;70097;44.536;0.146;2023-06-04T06:45:32;16.47;;;10.93;;
76701;SDS011;70097;44.536;0.146;2023-06-04T06:51:05;17.63;;;10.20;;
76701;SDS011;70097;44.536;0.146;2023-06-04T06:56:38;14.90;;;9.17;;
76701;SDS011;70097;44.536;0.146;2023-06-04T07:02:11;23.57;;;10.43;;
76701;SDS011;70097;44.536;0.146;2023-06-04T07:07:43;16.37;;;10.77;;
76701;SDS011;70097;44.536;0.146;2023-06-04T07:13:16;18.27;;;10.87;;
76701;SDS011;70097;44.536;0.146;2023-06-04T07:18:50;21.67;;;12.90;;
76701;SDS011;70097;44.536;0.146;2023-06-04T07:24:22;20.97;;;12.40;;
76701;SDS011;70097;44.536;0.146;2023-06-04T07:29:55;18.40;;;12.60;;
76701;SDS011;70097;44.536;0.146;2023-06-04T07:35:27;17.53;;;11.07;;
76701;SDS011;70097;44.536;0.146;2023-06-04T07:41:00;18.57;;;12.00;;
76701;SDS011;70097;44.536;0.146;2023-06-04T07:46:33;18.17;;;12.17;;
76701;SDS011;70097;44.536;0.146;2023-06-04T07:52:07;16.53;;;10.50;;
76701;SDS011;70097;44.536;0.146;2023-06-04T07:57:40;20.17;;;11.37;;
76701;SDS011;70097;44.536;0.146;2023-06-04T08:03:14;16.60;;;10.40;;
76701;SDS011;70097;44.536;0.146;2023-06-04T08:08:47;16.27;;;10.83;;
76701;SDS011;70097;44.536;0.146;2023-06-04T08:14:19;20.30;;;10.43;;
76701;SDS011;70097;44.536;0.146;2023-06-04T08:19:51;13.13;;;8.70;;
76701;SDS011;70097;44.536;0.146;2023-06-04T08:25:24;15.73;;;8.10;;
76701;SDS011;70097;44.536;0.146;2023-06-04T08:30:56;12.73;;;7.10;;
76701;SDS011;70097;44.536;0.146;2023-06-04T08:36:29;12.07;;;7.93;;
76701;SDS011;70097;44.536;0.146;2023-06-04T08:42:03;12.10;;;8.43;;
76701;SDS011;70097;44.536;0.146;2023-06-04T08:47:35;15.30;;;9.53;;
76701;SDS011;70097;44.536;0.146;2023-06-04T08:53:08;10.93;;;7.53;;
76701;SDS011;70097;44.536;0.146;2023-06-04T08:58:40;13.77;;;8.67;;
76701;SDS011;70097;44.536;0.146;2023-06-04T09:04:14;15.37;;;9.83;;
76701;SDS011;70097;44.536;0.146;2023-06-04T09:09:47;17.20;;;8.40;;
76701;SDS011;70097;44.536;0.146;2023-06-04T09:15:21;12.67;;;8.60;;
76701;SDS011;70097;44.536;0.146;2023-06-04T09:21:00;13.10;;;7.53;;
76701;SDS011;70097;44.536;0.146;2023-06-04T09:26:26;12.03;;;7.97;;
76701;SDS011;70097;44.536;0.146;2023-06-04T09:31:59;13.63;;;8.60;;
76701;SDS011;70097;44.536;0.146;2023-06-04T09:37:32;11.93;;;7.23;;
76701;SDS011;70097;44.536;0.146;2023-06-04T09:43:05;11.50;;;6.83;;
76701;SDS011;70097;44.536;0.146;2023-06-04T09:48:39;11.57;;;6.90;;
76701;SDS011;70097;44.536;0.146;2023-06-04T09:54:13;11.43;;;8.07;;
76701;SDS011;70097;44.536;0.146;2023-06-04T09:59:49;9.60;;;6.17;;
76701;SDS011;70097;44.536;0.146;2023-06-04T10:05:18;12.63;;;7.03;;
76701;SDS011;70097;44.536;0.146;2023-06-04T10:10:53;10.77;;;6.53;;
76701;SDS011;70097;44.536;0.146;2023-06-04T10:16:26;8.60;;;6.37;;
76701;SDS011;70097;44.536;0.146;2023-06-04T10:21:58;7.50;;;6.07;;
76701;SDS011;70097;44.536;0.146;2023-06-04T10:27:31;11.40;;;7.40;;
76701;SDS011;70097;44.536;0.146;2023-06-04T10:33:03;11.93;;;7.13;;
76701;SDS011;70097;44.536;0.146;2023-06-04T10:38:44;8.53;;;5.97;;
76701;SDS011;70097;44.536;0.146;2023-06-04T10:44:10;9.40;;;5.77;;
76701;SDS011;70097;44.536;0.146;2023-06-04T10:49:41;9.70;;;5.97;;
76701;SDS011;70097;44.536;0.146;2023-06-04T10:55:14;7.63;;;5.20;;
76701;SDS011;70097;44.536;0.146;2023-06-04T11:00:48;9.40;;;4.87;;
76701;SDS011;70097;44.536;0.146;2023-06-04T11:06:20;11.90;;;7.07;;
76701;SDS011;70097;44.536;0.146;2023-06-04T11:11:57;9.67;;;5.73;;
76701;SDS011;70097;44.536;0.146;2023-06-04T11:17:27;9.20;;;4.60;;
76701;SDS011;70097;44.536;0.146;2023-06-04T11:23:01;8.10;;;5.50;;
76701;SDS011;70097;44.536;0.146;2023-06-04T11:28:33;8.00;;;5.50;;
76701;SDS011;70097;44.536;0.146;2023-06-04T11:34:05;8.83;;;5.60;;
76701;SDS011;70097;44.536;0.146;2023-06-04T11:39:38;8.63;;;6.00;;
76701;SDS011;70097;44.536;0.146;2023-06-04T11:45:10;9.73;;;6.80;;
76701;SDS011;70097;44.536;0.146;2023-06-04T11:50:43;6.53;;;4.27;;
76701;SDS011;70097;44.536;0.146;2023-06-04T11:56:16;7.50;;;4.67;;
76701;SDS011;70097;44.536;0.146;2023-06-04T12:01:49;8.33;;;5.70;;
76701;SDS011;70097;44.536;0.146;2023-06-04T12:07:22;8.03;;;5.17;;
76701;SDS011;70097;44.536;0.146;2023-06-04T12:12:56;6.13;;;4.57;;
76701;SDS011;70097;44.536;0.146;2023-06-04T12:18:29;8.60;;;5.33;;
76701;SDS011;70097;44.536;0.146;2023-06-04T12:24:06;8.83;;;5.53;;
76701;SDS011;70097;44.536;0.146;2023-06-04T12:29:35;5.83;;;4.40;;
76701;SDS011;70097;44.536;0.146;2023-06-04T12:35:08;10.07;;;5.17;;
76701;SDS011;70097;44.536;0.146;2023-06-04T12:40:42;7.50;;;4.20;;
76701;SDS011;70097;44.536;0.146;2023-06-04T12:46:15;7.57;;;4.53;;
76701;SDS011;70097;44.536;0.146;2023-06-04T12:51:48;7.90;;;4.90;;
76701;SDS011;70097;44.536;0.146;2023-06-04T12:57:22;7.27;;;4.07;;
76701;SDS011;70097;44.536;0.146;2023-06-04T13:02:55;5.43;;;3.77;;
76701;SDS011;70097;44.536;0.146;2023-06-04T13:08:28;5.77;;;3.30;;
76701;SDS011;70097;44.536;0.146;2023-06-04T13:14:02;6.13;;;3.27;;
76701;SDS011;70097;44.536;0.146;2023-06-04T13:19:35;8.30;;;4.00;;
76701;SDS011;70097;44.536;0.146;2023-06-04T13:25:08;5.90;;;3.17;;
76701;SDS011;70097;44.536;0.146;2023-06-04T13:30:40;4.93;;;3.10;;
76701;SDS011;70097;44.536;0.146;2023-06-04T13:36:14;4.80;;;3.30;;
76701;SDS011;70097;44.536;0.146;2023-06-04T13:41:46;6.47;;;3.20;;
76701;SDS011;70097;44.536;0.146;2023-06-04T13:47:18;6.10;;;3.50;;
76701;SDS011;70097;44.536;0.146;2023-06-04T13:52:51;6.83;;;2.90;;
76701;SDS011;70097;44.536;0.146;2023-06-04T13:58:25;7.30;;;3.20;;
76701;SDS011;70097;44.536;0.146;2023-06-04T14:03:58;5.30;;;3.03;;
76701;SDS011;70097;44.536;0.146;2023-06-04T14:09:31;7.90;;;3.10;;
76701;SDS011;70097;44.536;0.146;2023-06-04T14:15:03;6.07;;;3.37;;
76701;SDS011;70097;44.536;0.146;2023-06-04T14:20:35;6.67;;;3.40;;
76701;SDS011;70097;44.536;0.146;2023-06-04T14:26:09;7.00;;;3.20;;
76701;SDS011;70097;44.536;0.146;2023-06-04T14:31:42;5.37;;;3.10;;
76701;SDS011;70097;44.536;0.146;2023-06-04T14:37:15;5.17;;;3.20;;
76701;SDS011;70097;44.536;0.146;2023-06-04T14:42:46;6.67;;;3.40;;
76701;SDS011;70097;44.536;0.146;2023-06-04T14:48:20;4.97;;;3.53;;
76701;SDS011;70097;44.536;0.146;2023-06-04T14:53:53;5.47;;;3.47;;
76701;SDS011;70097;44.536;0.146;2023-06-04T14:59:26;10.07;;;3.07;;
76701;SDS011;70097;44.536;0.146;2023-06-04T15:04:59;6.27;;;3.77;;
76701;SDS011;70097;44.536;0.146;2023-06-04T15:10:31;7.20;;;3.70;;
76701;SDS011;70097;44.536;0.146;2023-06-04T15:16:04;5.43;;;3.47;;
76701;SDS011;70097;44.536;0.146;2023-06-04T15:21:35;8.13;;;3.90;;
76701;SDS011;70097;44.536;0.146;2023-06-04T15:27:07;4.80;;;2.87;;
76701;SDS011;70097;44.536;0.146;2023-06-04T15:32:39;10.83;;;3.40;;
76701;SDS011;70097;44.536;0.146;2023-06-04T15:38:14;6.97;;;2.90;;
76701;SDS011;70097;44.536;0.146;2023-06-04T15:43:49;5.20;;;2.93;;
76701;SDS011;70097;44.536;0.146;2023-06-04T15:49:21;9.73;;;3.23;;
76701;SDS011;70097;44.536;0.146;2023-06-04T15:54:54;4.60;;;2.00;;
76701;SDS011;70097;44.536;0.146;2023-06-04T16:00:26;2.00;;;1.20;;
76701;SDS011;70097;44.536;0.146;2023-06-04T16:06:00;3.03;;;1.10;;
76701;SDS011;70097;44.536;0.146;2023-06-04T16:11:33;2.70;;;1.00;;
76701;SDS011;70097;44.536;0.146;2023-06-04T16:17:06;6.37;;;1.80;;
76701;SDS011;70097;44.536;0.146;2023-06-04T16:22:40;3.67;;;1.77;;
76701;SDS011;70097;44.536;0.146;2023-06-04T16:28:12;3.70;;;2.00;;
76701;SDS011;70097;44.536;0.146;2023-06-04T16:33:44;8.47;;;2.50;;
76701;SDS011;70097;44.536;0.146;2023-06-04T16:39:16;5.37;;;2.23;;
76701;SDS011;70097;44.536;0.146;2023-06-04T16:44:49;6.73;;;2.47;;
76701;SDS011;70097;44.536;0.146;2023-06-04T16:50:21;3.73;;;2.00;;
76701;SDS011;70097;44.536;0.146;2023-06-04T16:55:52;3.23;;;1.57;;
76701;SDS011;70097;44.536;0.146;2023-06-04T17:01:26;5.57;;;1.67;;
76701;SDS011;70097;44.536;0.146;2023-06-04T17:12:32;5.03;;;1.60;;
76701;SDS011;70097;44.536;0.146;2023-06-04T17:18:05;3.70;;;1.40;;
76701;SDS011;70097;44.536;0.146;2023-06-04T17:23:37;2.77;;;1.87;;
76701;SDS011;70097;44.536;0.146;2023-06-04T17:29:10;4.00;;;1.80;;
76701;SDS011;70097;44.536;0.146;2023-06-04T17:34:43;2.70;;;1.30;;
76701;SDS011;70097;44.536;0.146;2023-06-04T17:40:17;4.17;;;1.80;;
76701;SDS011;70097;44.536;0.146;2023-06-04T17:45:50;4.33;;;1.73;;
76701;SDS011;70097;44.536;0.146;2023-06-04T17:51:23;3.87;;;1.70;;
76701;SDS011;70097;44.536;0.146;2023-06-04T17:56:55;2.93;;;1.70;;
76701;SDS011;70097;44.536;0.146;2023-06-04T18:02:28;6.13;;;2.10;;
76701;SDS011;70097;44.536;0.146;2023-06-04T18:08:01;4.80;;;1.77;;
76701;SDS011;70097;44.536;0.146;2023-06-04T18:13:34;3.87;;;1.70;;
76701;SDS011;70097;44.536;0.146;2023-06-04T18:19:07;3.33;;;1.60;;
76701;SDS011;70097;44.536;0.146;2023-06-04T18:24:40;3.40;;;1.83;;
76701;SDS011;70097;44.536;0.146;2023-06-04T18:30:13;6.97;;;2.00;;
76701;SDS011;70097;44.536;0.146;2023-06-04T18:35:45;4.37;;;2.63;;
76701;SDS011;70097;44.536;0.146;2023-06-04T18:41:17;5.03;;;2.07;;
76701;SDS011;70097;44.536;0.146;2023-06-04T18:46:49;4.67;;;1.77;;
76701;SDS011;70097;44.536;0.146;2023-06-04T18:52:23;5.27;;;2.70;;
76701;SDS011;70097;44.536;0.146;2023-06-04T18:57:55;5.77;;;2.00;;
76701;SDS011;70097;44.536;0.146;2023-06-04T19:03:28;3.60;;;1.53;;
76701;SDS011;70097;44.536;0.146;2023-06-04T19:09:00;3.43;;;1.70;;
76701;SDS011;70097;44.536;0.146;2023-06-04T19:14:34;3.50;;;1.70;;
76701;SDS011;70097;44.536;0.146;2023-06-04T19:20:08;3.77;;;1.50;;
76701;SDS011;70097;44.536;0.146;2023-06-04T19:25:42;3.07;;;1.13;;
76701;SDS011;70097;44.536;0.146;2023-06-04T19:31:14;2.23;;;1.33;;
76701;SDS011;70097;44.536;0.146;2023-06-04T19:36:48;2.07;;;1.40;;
76701;SDS011;70097;44.536;0.146;2023-06-04T19:42:20;3.20;;;1.67;;
76701;SDS011;70097;44.536;0.146;2023-06-04T19:47:52;2.60;;;1.60;;
76701;SDS011;70097;44.536;0.146;2023-06-04T19:53:26;2.67;;;1.80;;
76701;SDS011;70097;44.536;0.146;2023-06-04T19:59:00;3.37;;;2.00;;
76701;SDS011;70097;44.536;0.146;2023-06-04T20:04:33;3.70;;;1.97;;
76701;SDS011;70097;44.536;0.146;2023-06-04T20:10:06;4.87;;;2.17;;
76701;SDS011;70097;44.536;0.146;2023-06-04T20:15:38;2.40;;;1.40;;
76701;SDS011;70097;44.536;0.146;2023-06-04T20:21:10;2.97;;;1.97;;
76701;SDS011;70097;44.536;0.146;2023-06-04T20:26:43;5.53;;;2.20;;
76701;SDS011;70097;44.536;0.146;2023-06-04T20:32:17;4.43;;;2.83;;
76701;SDS011;70097;44.536;0.146;2023-06-04T20:37:48;3.63;;;2.27;;
76701;SDS011;70097;44.536;0.146;2023-06-04T20:43:22;3.73;;;1.80;;
76701;SDS011;70097;44.536;0.146;2023-06-04T20:48:54;3.17;;;2.00;;
76701;SDS011;70097;44.536;0.146;2023-06-04T20:54:27;7.53;;;2.40;;
76701;SDS011;70097;44.536;0.146;2023-06-04T21:00:00;4.57;;;1.70;;
76701;SDS011;70097;44.536;0.146;2023-06-04T21:05:32;3.70;;;2.43;;
76701;SDS011;70097;44.536;0.146;2023-06-04T21:11:06;8.93;;;2.23;;
76701;SDS011;70097;44.536;0.146;2023-06-04T21:16:38;3.77;;;1.97;;
76701;SDS011;70097;44.536;0.146;2023-06-04T21:22:11;5.83;;;1.90;;
76701;SDS011;70097;44.536;0.146;2023-06-04T21:27:44;5.10;;;2.23;;
76701;SDS011;70097;44.536;0.146;2023-06-04T21:33:16;5.77;;;2.10;;
76701;SDS011;70097;44.536;0.146;2023-06-04T21:38:49;3.63;;;2.07;;
76701;SDS011;70097;44.536;0.146;2023-06-04T21:44:22;3.73;;;2.03;;
76701;SDS011;70097;44.536;0.146;2023-06-04T21:49:55;6.53;;;2.87;;
76701;SDS011;70097;44.536;0.146;2023-06-04T21:55:28;5.07;;;2.60;;
76701;SDS011;70097;44.536;0.146;2023-06-04T22:01:01;4.83;;;2.30;;
76701;SDS011;70097;44.536;0.146;2023-06-04T22:06:33;3.63;;;1.60;;
76701;SDS011;70097;44.536;0.146;2023-06-04T22:12:06;3.83;;;2.40;;
76701;SDS011;70097;44.536;0.146;2023-06-04T22:17:38;2.60;;;1.77;;
76701;SDS011;70097;44.536;0.146;2023-06-04T22:23:11;8.33;;;2.23;;
76701;SDS011;70097;44.536;0.146;2023-06-04T22:28:44;3.97;;;2.20;;
76701;SDS011;70097;44.536;0.146;2023-06-04T22:34:17;5.90;;;2.50;;
76701;SDS011;70097;44.536;0.146;2023-06-04T22:39:50;4.27;;;2.40;;
76701;SDS011;70097;44.536;0.146;2023-06-04T22:45:23;4.80;;;2.40;;
76701;SDS011;70097;44.536;0.146;2023-06-04T22:50:55;6.13;;;2.63;;
76701;SDS011;70097;44.536;0.146;2023-06-04T22:56:29;3.73;;;2.37;;
76701;SDS011;70097;44.536;0.146;2023-06-04T23:02:01;4.17;;;2.27;;
76701;SDS011;70097;44.536;0.146;2023-06-04T23:07:34;4.80;;;2.20;;
76701;SDS011;70097;44.536;0.146;2023-06-04T23:13:07;5.27;;;2.30;;
76701;SDS011;70097;44.536;0.146;2023-06-04T23:18:39;5.20;;;2.20;;
76701;SDS011;70097;44.536;0.146;2023-06-04T23:24:12;5.43;;;2.43;;
76701;SDS011;70097;44.536;0.146;2023-06-04T23:29:45;7.37;;;2.33;;
76701;SDS011;70097;44.536;0.146;2023-06-04T23:35:18;5.53;;;2.60;;
76701;SDS011;70097;44.536;0.146;2023-06-04T23:40:50;5.63;;;2.87;;
76701;SDS011;70097;44.536;0.146;2023-06-04T23:46:23;4.53;;;2.33;;
76701;SDS011;70097;44.536;0.146;2023-06-04T23:51:56;4.63;;;2.57;;
76701;SDS011;70097;44.536;0.146;2023-06-04T23:57:30;4.87;;;2.80;;
